createdAt,value
2022-11-15T00:12:38.706Z,86.32
2022-11-15T00:34:43.212Z,86.16
2022-11-15T00:56:47.418Z,85.71
2022-11-15T01:18:52.613Z,85.56
2022-11-15T01:40:55.308Z,85.49
2022-11-15T02:02:59.889Z,84.95
2022-11-15T02:25:22.804Z,85.00
2022-11-15T02:47:29.765Z,84.52
2022-11-15T03:09:44.090Z,84.52
2022-11-15T03:31:56.265Z,84.54
2022-11-15T03:54:01.056Z,84.50
2022-11-15T04:16:05.785Z,84.05
2022-11-15T04:38:09.978Z,84.29
2022-11-15T05:00:18.705Z,84.59
2022-11-15T05:22:23.079Z,84.94
2022-11-15T05:44:28.020Z,84.47
2022-11-15T06:06:32.594Z,83.97
2022-11-15T06:28:37.191Z,84.23
2022-11-15T06:50:41.598Z,84.77
2022-11-15T07:12:48.769Z,85.01
2022-11-15T07:34:53.514Z,85.56
2022-11-15T07:57:03.923Z,80.43
2022-11-15T08:19:11.075Z,79.59
2022-11-15T08:41:22.252Z,80.95
2022-11-15T09:03:26.631Z,81.13
2022-11-15T09:25:31.445Z,81.38
2022-11-15T09:47:48.885Z,76.42
2022-11-15T10:09:59.302Z,54.86
2022-11-15T10:31:47.547Z,46.53
2022-11-15T10:53:43.433Z,52.63
2022-11-15T11:15:31.782Z,58.26
2022-11-15T11:37:26.175Z,61.83
2022-11-15T11:59:21.830Z,63.32
2022-11-15T12:21:15.584Z,64.28
2022-11-15T12:43:28.161Z,64.32
2022-11-15T13:05:57.350Z,65.12
2022-11-15T13:27:44.023Z,65.85
2022-11-15T13:49:35.516Z,66.93
2022-11-15T14:11:22.506Z,67.72
2022-11-15T14:33:22.077Z,68.65
2022-11-15T14:55:17.993Z,69.47
2022-11-15T15:17:03.802Z,70.51
2022-11-15T15:38:49.583Z,72.12
2022-11-15T16:00:35.579Z,72.92
2022-11-15T16:22:21.431Z,73.88
2022-11-15T16:44:07.309Z,75.88
2022-11-15T17:05:53.792Z,76.23
2022-11-15T17:27:39.800Z,77.05
2022-11-15T17:49:25.646Z,77.61
2022-11-15T18:11:14.502Z,77.83
2022-11-15T18:33:00.307Z,78.48
2022-11-15T18:54:46.592Z,78.54
2022-11-15T19:16:34.614Z,78.56
2022-11-15T19:38:20.388Z,79.56
2022-11-15T20:00:07.824Z,80.00
2022-11-15T20:21:53.761Z,80.19
2022-11-15T20:43:41.835Z,80.90
2022-11-15T21:05:27.599Z,80.96
2022-11-15T21:27:13.590Z,80.84
2022-11-15T21:49:00.280Z,80.99
2022-11-15T22:10:49.450Z,81.09
2022-11-15T22:32:36.303Z,81.43
2022-11-15T22:54:22.706Z,81.41
2022-11-15T23:16:35.688Z,81.76
2022-11-15T23:38:21.973Z,81.41
